Time;durP1;ratioP1;P1;durP2;ratioP2;P2;SDS_P1;SDS_P2;PMS_P1;PMS_P2;Temp;Humidity;BMP_temperature;BMP_pressure;BME280_temperature;BME280_humidity;BME280_pressure;Samples;Min_cycle;Max_cycle;Signal;HPM_P1;HPM_P2
2023/10/16 00:00:29;;;;;;;;;;;;;;;19.70;61.00;100609.97;4946141;28;19926;-91
2023/10/16 00:03:01;;;;;;;;;;;;;;;19.67;61.09;100601.94;4939266;29;19964;-92
2023/10/16 00:05:31;;;;;;;;;;;;;;;19.65;61.15;100595.72;4939284;29;20392;-91
2023/10/16 00:07:57;;;;;;;;;;;;;;;19.64;60.97;100600.16;4932652;29;19974;-90
2023/10/16 00:10:27;;;;;;;;;;;;;;;19.66;60.88;100601.06;4927086;29;20468;-90
2023/10/16 00:12:54;;;;;;;;;;;;;;;19.68;60.91;100601.97;4953706;29;19973;-90
2023/10/16 00:15:28;;;;;;;;;;;;;;;19.66;61.04;100595.78;4938751;29;20324;-93
2023/10/16 00:17:57;;;;;;;;;;;;;;;19.68;60.94;100598.41;4954057;29;20005;-91
2023/10/16 00:20:33;;;;;;;;;;;;;;;19.63;61.12;100603.66;4938329;29;19918;-91
2023/10/16 00:23:15;;;;;;;;;;;;;;;19.66;61.03;100600.16;4938935;29;19954;-91
2023/10/16 00:25:56;;;;;;;;;;;;;;;19.65;60.84;100601.91;4953187;29;19922;-92
2023/10/16 00:28:26;;;;;;;;;;;;;;;19.63;61.06;100601.00;4950032;29;19914;-92
2023/10/16 00:30:56;;;;;;;;;;;;;;;19.68;60.93;100603.72;4939149;29;19922;-92
2023/10/16 00:33:33;;;;;;;;;;;;;;;19.67;60.83;100607.25;4938445;29;19981;-94
2023/10/16 00:36:05;;;;;;;;;;;;;;;19.65;60.92;100607.22;4938322;29;19940;-91
2023/10/16 00:38:37;;;;;;;;;;;;;;;19.64;61.01;100602.81;4939296;29;19989;-91
2023/10/16 00:41:16;;;;;;;;;;;;;;;19.66;60.95;100610.75;4931741;29;19918;-91
2023/10/16 00:44:07;;;;;;;;;;;;;;;19.63;61.04;100613.38;4951924;29;19965;-93
2023/10/16 00:46:37;;;;;;;;;;;;;;;19.63;60.95;100608.94;4938084;29;19969;-93
2023/10/16 00:49:28;;;;;;;;;;;;;;;19.64;60.77;100604.53;4954470;28;19970;-93
2023/10/16 00:51:55;;;;;;;;;;;;;;;19.65;60.77;100598.38;4955704;28;19919;-92
2023/10/16 00:54:39;;;;;;;;;;;;;;;19.63;60.81;100601.00;4954618;29;19945;-92
2023/10/16 00:57:08;;;;;;;;;;;;;;;19.64;60.77;100600.16;4954016;29;19921;-91
2023/10/16 00:59:39;;;;;;;;;;;;;;;19.66;60.78;100610.75;4939834;29;19918;-90
2023/10/16 01:02:13;;;;;;;;;;;;;;;19.67;60.58;100608.13;4960344;28;20396;-90
2023/10/16 01:04:47;;;;;;;;;;;;;;;19.63;60.77;100608.94;4941012;29;19923;-92
2023/10/16 01:07:15;;;;;;;;;;;;;;;19.70;60.53;100615.25;4955217;29;19925;-92
2023/10/16 01:09:42;;;;;;;;;;;;;;;19.70;60.59;100612.59;4937859;29;19919;-92
2023/10/16 01:12:08;;;;;;;;;;;;;;;19.73;60.46;100615.31;4934583;29;19919;-90
2023/10/16 01:14:45;;;;;;;;;;;;;;;19.68;60.48;100616.97;4929817;29;19915;-91
2023/10/16 01:17:12;;;;;;;;;;;;;;;19.66;60.71;100621.34;4952204;28;20027;-90
2023/10/16 01:19:43;;;;;;;;;;;;;;;19.66;60.62;100621.34;4931310;29;19970;-91
2023/10/16 01:22:13;;;;;;;;;;;;;;;19.64;60.69;100631.94;4954971;28;19922;-90
2023/10/16 01:24:43;;;;;;;;;;;;;;;19.67;60.48;100625.78;4938782;29;19926;-90
2023/10/16 01:27:25;;;;;;;;;;;;;;;19.70;60.53;100639.09;4948043;28;19919;-91
2023/10/16 01:29:53;;;;;;;;;;;;;;;19.68;60.56;100635.50;4932153;29;20432;-90
2023/10/16 01:32:21;;;;;;;;;;;;;;;19.71;60.22;100628.53;4941008;28;19919;-92
2023/10/16 01:34:50;;;;;;;;;;;;;;;19.70;60.28;100629.38;4973516;28;19973;-92
2023/10/16 01:37:18;;;;;;;;;;;;;;;19.69;60.08;100627.59;4952641;29;19932;-92
2023/10/16 01:39:55;;;;;;;;;;;;;;;19.66;60.47;100634.59;4934913;29;20380;-91
2023/10/16 01:42:23;;;;;;;;;;;;;;;19.64;60.53;100634.59;4943972;29;20010;-92
2023/10/16 01:45:05;;;;;;;;;;;;;;;19.68;60.37;100632.84;4934946;29;19965;-92
2023/10/16 01:47:43;;;;;;;;;;;;;;;19.67;60.33;100636.38;4945546;28;20067;-94
2023/10/16 01:50:23;;;;;;;;;;;;;;;19.67;60.32;100636.38;4953953;29;19989;-93
2023/10/16 01:52:48;;;;;;;;;;;;;;;19.65;60.45;100646.94;4940379;29;19930;-92
2023/10/16 01:55:32;;;;;;;;;;;;;;;19.64;60.30;100649.56;4925118;29;20017;-93
2023/10/16 02:01:04;;;;;;;;;;;;;;;19.64;60.17;100671.69;4951311;28;19970;-91
2023/10/16 02:03:50;;;;;;;;;;;;;;;19.61;60.11;100666.31;4936073;29;20381;-91
2023/10/16 02:06:17;;;;;;;;;;;;;;;19.60;60.08;100668.94;4952340;28;19922;-92
2023/10/16 02:09:04;;;;;;;;;;;;;;;19.62;60.26;100672.50;4924847;28;19969;-92
2023/10/16 02:11:44;;;;;;;;;;;;;;;19.63;59.89;100676.94;4962115;28;19918;-91
2023/10/16 02:14:39;;;;;;;;;;;;;;;19.63;60.19;100679.59;4939274;29;20389;-91
2023/10/16 02:19:54;;;;;;;;;;;;;;;19.66;59.78;100677.88;4958816;29;19915;-91
2023/10/16 02:22:25;;;;;;;;;;;;;;;19.64;59.72;100697.25;4937835;29;19915;-92
2023/10/16 02:24:59;;;;;;;;;;;;;;;19.62;59.65;100693.69;4932347;29;19958;-92
2023/10/16 02:27:26;;;;;;;;;;;;;;;19.65;59.64;100693.75;4956933;29;19930;-91
2023/10/16 02:30:35;;;;;;;;;;;;;;;19.61;59.65;100699.88;4937819;29;19978;-94
2023/10/16 02:36:20;;;;;;;;;;;;;;;19.66;59.42;100692.88;4943015;28;19978;-93
2023/10/16 02:38:50;;;;;;;;;;;;;;;19.63;59.49;100699.03;4937910;29;19915;-92
2023/10/16 02:41:35;;;;;;;;;;;;;;;19.63;59.55;100706.97;4937899;29;19921;-93
2023/10/16 02:44:22;;;;;;;;;;;;;;;19.61;59.32;100708.69;4949653;28;19919;-93
2023/10/16 02:47:05;;;;;;;;;;;;;;;19.66;59.11;100716.72;4952978;28;20290;-93
2023/10/16 02:52:40;;;;;;;;;;;;;;;19.64;59.24;100732.59;4948019;29;19980;-92
2023/10/16 02:55:06;;;;;;;;;;;;;;;19.72;58.71;100730.97;4937414;29;19977;-92
2023/10/16 02:57:33;;;;;;;;;;;;;;;19.71;58.79;100738.94;4933877;29;20444;-92
2023/10/16 03:00:01;;;;;;;;;;;;;;;19.67;58.61;100740.59;4947547;29;20005;-92
2023/10/16 03:02:31;;;;;;;;;;;;;;;19.69;58.68;100745.91;4940642;29;19966;-92
2023/10/16 03:05:10;;;;;;;;;;;;;;;19.70;58.59;100750.38;4947205;29;20335;-93
2023/10/16 03:07:36;;;;;;;;;;;;;;;19.64;58.55;100751.16;4943274;29;19948;-92
2023/10/16 03:10:01;;;;;;;;;;;;;;;19.67;58.63;100771.50;4935650;29;20400;-92
2023/10/16 03:12:28;;;;;;;;;;;;;;;19.66;58.51;100769.69;4955651;28;19926;-93
2023/10/16 03:14:58;;;;;;;;;;;;;;;19.60;58.33;100772.25;4938592;29;19973;-94
2023/10/16 03:20:35;;;;;;;;;;;;;;;19.59;58.38;100781.06;4944340;29;19970;-90
2023/10/16 03:23:31;;;;;;;;;;;;;;;19.57;58.33;100786.31;4947141;29;19914;-92
2023/10/16 03:25:59;;;;;;;;;;;;;;;19.62;57.70;100795.28;4946902;28;19919;-95
2023/10/16 03:28:26;;;;;;;;;;;;;;;19.63;57.79;100783.78;4950324;29;20553;-94
2023/10/16 03:31:03;;;;;;;;;;;;;;;19.59;57.75;100792.56;4941851;29;19998;-93
2023/10/16 03:33:35;;;;;;;;;;;;;;;19.53;57.96;100793.31;4933851;28;21259;-93
2023/10/16 03:36:02;;;;;;;;;;;;;;;19.63;57.88;100812.94;4953160;29;19919;-94
2023/10/16 03:38:41;;;;;;;;;;;;;;;19.63;57.57;100812.94;4935833;29;19915;-92
2023/10/16 03:43:58;;;;;;;;;;;;;;;19.59;57.73;100818.16;4956461;28;19914;-93
2023/10/16 03:46:27;;;;;;;;;;;;;;;19.57;57.70;100823.41;4929131;29;19929;-90
2023/10/16 03:49:14;;;;;;;;;;;;;;;19.57;57.67;100835.78;4934876;29;20072;-93
2023/10/16 03:51:56;;;;;;;;;;;;;;;19.57;57.33;100838.44;4950411;29;19918;-92
2023/10/16 03:54:55;;;;;;;;;;;;;;;19.53;57.67;100848.94;4945808;29;19966;-93
2023/10/16 03:57:30;;;;;;;;;;;;;;;19.56;57.40;100855.16;4953706;28;19989;-91
2023/10/16 04:00:17;;;;;;;;;;;;;;;19.57;57.23;100863.16;4937433;29;19914;-92
2023/10/16 04:11:52;;;;;;;;;;;;;;;19.43;58.13;100881.44;5336485;23;19933;-94
2023/10/16 04:17:13;;;;;;;;;;;;;;;19.41;58.47;100882.25;4948821;28;19974;-90
2023/10/16 04:20:42;;;;;;;;;;;;;;;19.31;58.72;100881.19;4922728;29;19923;-94
2023/10/16 04:23:04;;;;;;;;;;;;;;;19.41;58.47;100887.53;4946332;28;19922;-94
2023/10/16 04:51:17;;;;;;;;;;;;;;;19.09;58.43;100935.44;5741810;23;19930;-96
2023/10/16 05:02:10;;;;;;;;;;;;;;;19.07;58.19;100963.63;5423941;23;19927;-96
2023/10/16 05:07:45;;;;;;;;;;;;;;;19.03;58.23;101006.78;4940149;29;20431;-94
2023/10/16 05:16:30;;;;;;;;;;;;;;;19.08;58.28;101003.38;4901170;29;19972;-94
2023/10/16 05:18:51;;;;;;;;;;;;;;;19.16;58.32;101024.72;4961910;28;19926;-94
2023/10/16 06:15:24;;;;;;;;;;;;;;;18.97;57.29;101153.09;4958385;28;20475;-94
2023/10/16 06:21:00;;;;;;;;;;;;;;;18.98;57.05;101189.28;4978322;28;19922;-95
2023/10/16 06:23:33;;;;;;;;;;;;;;;18.99;56.74;101198.13;4941405;28;19994;-93
2023/10/16 06:26:26;;;;;;;;;;;;;;;19.04;57.01;101209.72;4942057;28;19922;-93
2023/10/16 06:29:06;;;;;;;;;;;;;;;19.04;57.09;101222.97;4971450;28;19929;-94
2023/10/16 06:31:35;;;;;;;;;;;;;;;18.99;57.01;101241.38;4939914;28;19932;-91
2023/10/16 06:34:05;;;;;;;;;;;;;;;19.05;57.02;101237.97;4940322;28;19922;-94
2023/10/16 06:36:55;;;;;;;;;;;;;;;18.95;57.05;101249.19;4934968;28;19926;-94
2023/10/16 06:39:35;;;;;;;;;;;;;;;18.97;57.26;101253.66;4984886;28;19933;-95
2023/10/16 06:42:14;;;;;;;;;;;;;;;19.03;57.09;101258.25;4949114;28;19922;-92
2023/10/16 06:44:53;;;;;;;;;;;;;;;19.04;57.18;101263.56;4966517;28;19921;-89
2023/10/16 06:47:41;;;;;;;;;;;;;;;18.98;57.07;101267.78;4952673;28;19922;-95
2023/10/16 06:50:42;;;;;;;;;;;;;;;18.97;57.16;101280.13;4965752;28;20009;-94
2023/10/16 06:53:44;;;;;;;;;;;;;;;18.92;56.98;101287.94;4981574;28;19951;-96
2023/10/16 06:56:14;;;;;;;;;;;;;;;18.90;56.78;101294.03;4963911;28;19926;-95
2023/10/16 06:58:50;;;;;;;;;;;;;;;18.97;56.50;101322.47;4971912;28;20308;-93
2023/10/16 07:01:40;;;;;;;;;;;;;;;18.96;57.27;101344.50;4969227;28;19925;-94
2023/10/16 07:04:11;;;;;;;;;;;;;;;18.99;56.93;101362.25;4981092;28;20388;-95
2023/10/16 07:06:38;;;;;;;;;;;;;;;18.96;56.68;101364.78;4961544;28;19980;-95
2023/10/16 07:09:09;;;;;;;;;;;;;;;19.02;56.84;101389.69;4951269;28;19918;-96
2023/10/16 07:11:42;;;;;;;;;;;;;;;19.03;57.45;101391.47;4950061;28;20426;-95
2023/10/16 07:14:12;;;;;;;;;;;;;;;19.07;57.25;101397.75;4946014;28;19929;-95
2023/10/16 07:16:41;;;;;;;;;;;;;;;19.04;57.09;101405.59;4944383;28;19922;-95
2023/10/16 07:19:16;;;;;;;;;;;;;;;19.03;57.39;101407.38;4942327;28;20399;-95
2023/10/16 07:21:48;;;;;;;;;;;;;;;19.03;57.60;101411.78;4952942;28;19930;-94
2023/10/16 07:24:15;;;;;;;;;;;;;;;19.05;57.36;101421.53;4945777;28;19972;-94
2023/10/16 07:26:41;;;;;;;;;;;;;;;19.05;57.26;101429.50;4952324;28;19926;-91
2023/10/16 07:29:08;;;;;;;;;;;;;;;19.05;56.85;101433.84;4961664;28;19950;-95
2023/10/16 07:31:35;;;;;;;;;;;;;;;18.98;57.20;101450.44;4942604;28;19925;-94
2023/10/16 07:34:04;;;;;;;;;;;;;;;19.03;57.22;101459.41;4944678;28;19928;-94
2023/10/16 07:36:48;;;;;;;;;;;;;;;19.04;57.21;101469.13;4945257;28;19918;-93
2023/10/16 07:39:16;;;;;;;;;;;;;;;19.07;56.93;101485.09;4950590;28;19926;-94
2023/10/16 07:41:52;;;;;;;;;;;;;;;19.01;56.21;101488.47;4947871;28;19917;-95
2023/10/16 07:44:35;;;;;;;;;;;;;;;19.01;56.97;101490.25;4939006;28;20025;-92
2023/10/16 07:47:01;;;;;;;;;;;;;;;19.01;57.16;101504.38;4961458;28;19973;-93
2023/10/16 07:49:34;;;;;;;;;;;;;;;18.97;56.78;101517.47;4940309;28;19914;-91
2023/10/16 07:52:11;;;;;;;;;;;;;;;18.98;56.67;101516.59;4955578;28;19922;-96
2023/10/16 07:57:35;;;;;;;;;;;;;;;19.00;57.01;101538.72;4975946;28;19945;-94
2023/10/16 08:00:13;;;;;;;;;;;;;;;18.90;56.95;101534.88;4948572;28;19918;-95
2023/10/16 08:02:44;;;;;;;;;;;;;;;18.78;56.47;101540.69;4962363;28;19998;-93
2023/10/16 08:05:16;;;;;;;;;;;;;;;18.83;56.54;101557.59;4954146;28;19922;-95
2023/10/16 08:07:49;;;;;;;;;;;;;;;18.89;56.08;101544.56;4967912;28;20013;-93
2023/10/16 08:10:40;;;;;;;;;;;;;;;18.77;56.48;101561.75;4963706;28;19922;-95
2023/10/16 08:13:12;;;;;;;;;;;;;;;18.82;56.26;101563.75;4943063;29;19922;-96
2023/10/16 08:15:49;;;;;;;;;;;;;;;18.75;56.29;101568.75;4946781;29;19994;-95
2023/10/16 08:18:15;;;;;;;;;;;;;;;18.83;56.32;101575.22;4964194;29;19986;-94
2023/10/16 08:21:08;;;;;;;;;;;;;;;18.80;55.86;101585.72;4943850;29;19927;-96
2023/10/16 08:26:29;;;;;;;;;;;;;;;18.85;55.95;101594.69;4948835;29;19923;-96
2023/10/16 08:29:06;;;;;;;;;;;;;;;18.87;56.26;101599.19;4936158;29;19923;-93
2023/10/16 08:31:41;;;;;;;;;;;;;;;18.86;56.35;101608.00;4939317;29;19930;-94
2023/10/16 08:34:07;;;;;;;;;;;;;;;18.86;56.01;101597.41;4962113;29;19918;-94
2023/10/16 08:36:32;;;;;;;;;;;;;;;18.72;56.24;101602.19;4948640;29;19989;-94
2023/10/16 08:39:14;;;;;;;;;;;;;;;18.74;55.98;101596.06;4964350;29;19938;-94
2023/10/16 08:42:24;;;;;;;;;;;;;;;18.68;55.98;101605.56;4942471;28;19983;-95
2023/10/16 08:44:37;;;;;;;;;;;;;;;18.71;55.64;101600.41;4941306;29;19922;-94
2023/10/16 08:49:30;;;;;;;;;;;;;;;18.70;55.84;101622.41;4941805;29;20492;-95
2023/10/16 08:52:03;;;;;;;;;;;;;;;18.58;56.13;101637.84;4944832;29;19953;-95
2023/10/16 08:57:41;;;;;;;;;;;;;;;18.58;56.13;101652.81;4954977;29;19982;-93
2023/10/16 09:00:38;;;;;;;;;;;;;;;18.68;55.99;101662.88;4953679;28;19918;-93
2023/10/16 09:03:12;;;;;;;;;;;;;;;18.63;56.56;101683.00;4952753;28;19929;-93
2023/10/16 09:05:46;;;;;;;;;;;;;;;18.59;56.18;101687.28;4937422;29;19919;-94
2023/10/16 09:08:15;;;;;;;;;;;;;;;18.69;56.27;101692.06;4938313;29;19990;-94
2023/10/16 09:10:47;;;;;;;;;;;;;;;18.69;56.81;101723.81;4949595;28;19922;-95
2023/10/16 09:13:16;;;;;;;;;;;;;;;18.69;56.81;101730.84;4934088;28;20426;-95
2023/10/16 09:15:46;;;;;;;;;;;;;;;18.53;57.11;101734.66;4937552;29;20388;-93
2023/10/16 09:18:22;;;;;;;;;;;;;;;18.49;56.87;101749.50;4947106;28;19931;-95
2023/10/16 09:23:53;;;;;;;;;;;;;;;18.31;57.16;101747.09;4944054;28;19929;-94
2023/10/16 09:26:44;;;;;;;;;;;;;;;18.41;56.73;101755.38;4936069;28;19922;-95
2023/10/16 09:29:19;;;;;;;;;;;;;;;18.39;57.27;101762.34;4936606;29;19923;-93
2023/10/16 09:32:10;;;;;;;;;;;;;;;18.48;56.78;101776.81;4940354;28;21264;-93
2023/10/16 09:34:53;;;;;;;;;;;;;;;18.44;57.36;101779.31;4949151;28;19922;-94
2023/10/16 09:37:47;;;;;;;;;;;;;;;18.42;56.92;101768.66;4937490;29;19923;-93
2023/10/16 09:40:24;;;;;;;;;;;;;;;18.45;56.81;101781.97;4950231;29;19922;-94
2023/10/16 09:46:21;;;;;;;;;;;;;;;18.45;56.93;101791.66;4947796;29;19926;-92
2023/10/16 09:48:47;;;;;;;;;;;;;;;18.38;56.42;101795.81;4947784;28;19945;-94
2023/10/16 09:51:16;;;;;;;;;;;;;;;18.35;56.96;101805.38;4951970;29;19926;-94
2023/10/16 09:53:44;;;;;;;;;;;;;;;18.28;56.92;101810.41;4939292;29;19926;-94
2023/10/16 09:56:12;;;;;;;;;;;;;;;18.27;56.87;101803.34;4947257;29;19913;-92
2023/10/16 09:58:40;;;;;;;;;;;;;;;18.29;57.01;101801.66;4950363;29;19954;-91
2023/10/16 10:01:30;;;;;;;;;;;;;;;18.35;52.21;101798.38;4938436;29;19919;-94
2023/10/16 10:03:56;;;;;;;;;;;;;;;18.27;51.12;101810.38;4953221;29;20381;-87
2023/10/16 10:06:24;;;;;;;;;;;;;;;18.03;50.62;101808.56;4944388;29;19927;-88
2023/10/16 10:09:41;;;;;;;;;;;;;;;17.97;50.75;101808.31;4944551;29;19926;-87
2023/10/16 10:14:48;;;;;;;;;;;;;;;17.77;50.44;101818.03;4954409;28;19922;-88
2023/10/16 10:17:19;;;;;;;;;;;;;;;17.65;50.22;101820.16;4955757;28;19940;-87
2023/10/16 10:19:46;;;;;;;;;;;;;;;17.67;50.55;101813.19;4955049;28;19918;-92
2023/10/16 10:22:22;;;;;;;;;;;;;;;17.95;53.20;101811.72;4939767;28;20013;-91
2023/10/16 10:24:53;;;;;;;;;;;;;;;18.13;52.89;101809.81;4940335;28;19926;-89
2023/10/16 10:27:24;;;;;;;;;;;;;;;18.20;53.45;101805.69;4940015;28;20439;-90
2023/10/16 10:29:49;;;;;;;;;;;;;;;18.23;53.59;101805.81;4950284;28;20384;-90
2023/10/16 10:32:24;;;;;;;;;;;;;;;18.23;54.14;101803.19;4928412;28;19929;-92
2023/10/16 10:34:57;;;;;;;;;;;;;;;18.26;54.60;101803.28;4928376;28;19918;-89
2023/10/16 10:37:41;;;;;;;;;;;;;;;18.30;54.51;101811.38;4942676;28;19918;-90
2023/10/16 10:40:33;;;;;;;;;;;;;;;18.24;54.49;101807.59;4940185;28;19918;-90
2023/10/16 10:43:04;;;;;;;;;;;;;;;18.13;55.62;101806.28;4976111;28;19957;-90
2023/10/16 10:45:33;;;;;;;;;;;;;;;18.17;54.98;101809.09;4929986;28;19918;-88
2023/10/16 10:48:03;;;;;;;;;;;;;;;18.22;55.05;101796.97;4957091;28;19922;-90
2023/10/16 10:50:28;;;;;;;;;;;;;;;18.24;55.33;101800.56;4931181;28;19922;-88
2023/10/16 10:52:54;;;;;;;;;;;;;;;18.30;55.78;101798.16;4956472;28;19918;-89
2023/10/16 10:55:22;;;;;;;;;;;;;;;18.29;55.90;101799.03;4929831;28;19929;-90
2023/10/16 10:57:55;;;;;;;;;;;;;;;18.28;55.83;101799.84;4941991;28;19914;-89
2023/10/16 11:00:22;;;;;;;;;;;;;;;18.35;55.95;101811.59;4958329;28;19918;-88
2023/10/16 11:03:10;;;;;;;;;;;;;;;18.37;55.73;101809.91;4956001;28;19915;-90
2023/10/16 11:05:45;;;;;;;;;;;;;;;18.21;56.32;101799.56;4961231;28;19960;-88
2023/10/16 11:10:47;;;;;;;;;;;;;;;18.30;56.30;101803.44;4941087;28;20013;-89
2023/10/16 11:13:13;;;;;;;;;;;;;;;18.42;55.77;101796.84;4954708;29;19926;-88
2023/10/16 11:15:54;;;;;;;;;;;;;;;18.40;56.24;101801.19;4935443;29;19919;-89
2023/10/16 11:18:26;;;;;;;;;;;;;;;18.42;56.09;101810.09;4936395;29;19919;-90
2023/10/16 11:20:55;;;;;;;;;;;;;;;18.41;56.10;101806.50;4937580;29;19954;-90
2023/10/16 11:23:25;;;;;;;;;;;;;;;18.41;56.60;101802.97;4954729;28;19970;-90
2023/10/16 11:25:51;;;;;;;;;;;;;;;18.40;56.65;101802.06;4948540;28;19923;-90
2023/10/16 11:28:20;;;;;;;;;;;;;;;18.26;56.34;101811.22;4933567;29;19930;-89
2023/10/16 11:30:57;;;;;;;;;;;;;;;18.39;56.15;101802.91;4950356;29;19922;-89
2023/10/16 11:34:00;;;;;;;;;;;;;;;18.47;56.44;101800.56;4939618;29;19922;-89
2023/10/16 11:36:23;;;;;;;;;;;;;;;18.48;56.39;101802.38;4952661;29;19930;-91
2023/10/16 11:38:53;;;;;;;;;;;;;;;18.52;56.28;101796.38;4939337;29;20328;-88
2023/10/16 11:41:24;;;;;;;;;;;;;;;18.49;56.27;101790.94;4951007;29;19919;-89
2023/10/16 11:43:54;;;;;;;;;;;;;;;18.42;56.03;101794.22;4941904;29;19965;-90
2023/10/16 11:46:39;;;;;;;;;;;;;;;18.45;56.38;101775.81;4938342;29;19918;-88
2023/10/16 11:52:08;;;;;;;;;;;;;;;18.57;56.10;101781.56;4954604;29;19922;-90
2023/10/16 11:54:34;;;;;;;;;;;;;;;18.32;56.61;101782.38;4941417;29;19941;-88
2023/10/16 11:57:00;;;;;;;;;;;;;;;18.30;57.20;101795.53;4934322;29;20021;-89
2023/10/16 11:59:28;;;;;;;;;;;;;;;18.36;56.77;101793.97;4938387;29;20041;-91
2023/10/16 12:02:41;;;;;;;;;;;;;;;18.26;56.67;101800.63;4938929;29;20013;-89
2023/10/16 12:04:44;;;;;;;;;;;;;;;18.15;56.94;101805.50;4931916;29;19929;-89
2023/10/16 12:07:14;;;;;;;;;;;;;;;18.28;57.06;101806.88;4942612;28;20046;-90
2023/10/16 12:09:48;;;;;;;;;;;;;;;18.43;56.56;101811.88;4950150;28;19923;-91
2023/10/16 12:12:19;;;;;;;;;;;;;;;18.39;56.47;101826.72;4940151;28;20022;-88
2023/10/16 12:14:47;;;;;;;;;;;;;;;18.45;56.25;101826.06;4945003;28;19923;-89
2023/10/16 12:17:13;;;;;;;;;;;;;;;18.43;55.86;101823.34;4918787;29;19930;-92
2023/10/16 12:19:39;;;;;;;;;;;;;;;18.34;56.09;101824.75;4926952;29;20399;-91
2023/10/16 12:22:08;;;;;;;;;;;;;;;18.41;56.03;101816.19;4950826;28;19919;-91
2023/10/16 12:24:43;;;;;;;;;;;;;;;18.45;55.62;101810.19;4947740;29;19922;-92
2023/10/16 12:27:10;;;;;;;;;;;;;;;18.39;56.40;101813.47;4945656;29;19923;-91
2023/10/16 12:29:36;;;;;;;;;;;;;;;18.51;55.51;101813.06;4950528;29;19914;-91
2023/10/16 12:32:03;;;;;;;;;;;;;;;18.55;55.47;101817.63;4928037;29;20017;-91
2023/10/16 12:34:35;;;;;;;;;;;;;;;18.55;55.64;101822.03;4947516;29;19969;-90
2023/10/16 12:37:01;;;;;;;;;;;;;;;18.48;56.24;101821.78;4953931;29;20415;-91
2023/10/16 12:39:28;;;;;;;;;;;;;;;18.37;56.53;101828.41;4952613;29;19922;-91
2023/10/16 12:41:55;;;;;;;;;;;;;;;18.40;56.77;101825.00;4948756;29;19918;-91
2023/10/16 12:44:23;;;;;;;;;;;;;;;18.41;56.72;101824.13;4934624;29;20388;-91
2023/10/16 12:46:49;;;;;;;;;;;;;;;18.50;55.87;101835.09;4938208;29;19919;-92
2023/10/16 12:49:15;;;;;;;;;;;;;;;18.48;56.06;101826.19;4939753;29;20382;-91
2023/10/16 12:51:42;;;;;;;;;;;;;;;18.46;56.55;101822.59;4943489;29;19957;-91
2023/10/16 12:54:09;;;;;;;;;;;;;;;18.52;56.38;101817.53;4945497;29;19933;-91
2023/10/16 12:56:36;;;;;;;;;;;;;;;18.56;55.57;101818.53;4946046;29;19970;-91
2023/10/16 12:59:08;;;;;;;;;;;;;;;18.52;56.43;101818.44;4942531;29;19922;-92
2023/10/16 13:01:33;;;;;;;;;;;;;;;18.51;56.36;101819.25;4942476;29;20392;-92
2023/10/16 13:04:01;;;;;;;;;;;;;;;18.52;56.71;101829.00;4941965;29;19929;-91
2023/10/16 13:06:28;;;;;;;;;;;;;;;18.47;56.62;101827.91;4951708;28;19968;-91
2023/10/16 13:08:55;;;;;;;;;;;;;;;18.48;56.53;101829.72;4942677;29;19918;-90
2023/10/16 13:11:21;;;;;;;;;;;;;;;18.58;55.94;101828.31;4954563;29;19919;-91
2023/10/16 13:13:47;;;;;;;;;;;;;;;18.57;56.18;101823.88;4927187;29;20385;-91
2023/10/16 13:16:12;;;;;;;;;;;;;;;18.57;56.87;101828.28;4926194;29;20005;-90
2023/10/16 13:18:39;;;;;;;;;;;;;;;18.57;56.40;101823.88;4924080;29;19926;-90
2023/10/16 13:21:12;;;;;;;;;;;;;;;18.55;56.62;101827.31;4952969;28;19926;-88
2023/10/16 13:23:39;;;;;;;;;;;;;;;18.51;56.99;101823.66;4935966;29;20340;-90
2023/10/16 13:26:07;;;;;;;;;;;;;;;18.51;55.86;101826.28;4934816;28;19923;-87
2023/10/16 13:28:41;;;;;;;;;;;;;;;18.48;49.90;101834.13;4931886;29;20348;-85
2023/10/16 13:31:08;;;;;;;;;;;;;;;18.53;46.79;101824.59;4947079;29;19927;-86
2023/10/16 13:33:34;;;;;;;;;;;;;;;18.46;45.94;101836.69;4945064;28;19918;-87
2023/10/16 13:36:00;;;;;;;;;;;;;;;18.44;45.19;101837.50;4952061;28;20005;-88
2023/10/16 13:38:26;;;;;;;;;;;;;;;18.39;45.39;101842.56;4937208;29;19919;-86
2023/10/16 13:40:53;;;;;;;;;;;;;;;18.48;45.94;101836.78;4951386;28;19926;-85
2023/10/16 13:43:18;;;;;;;;;;;;;;;18.44;45.11;101851.63;4953642;29;19948;-85
2023/10/16 13:45:44;;;;;;;;;;;;;;;18.41;45.07;101842.63;4951004;28;20392;-89
2023/10/16 13:48:10;;;;;;;;;;;;;;;18.49;47.05;101846.50;4955723;29;19911;-90
2023/10/16 13:50:35;;;;;;;;;;;;;;;18.57;48.49;101847.69;4960048;29;19946;-90
2023/10/16 13:53:08;;;;;;;;;;;;;;;18.29;49.82;101846.63;4972834;29;19906;-90
2023/10/16 13:55:39;;;;;;;;;;;;;;;18.02;50.13;101851.69;4950392;29;20396;-90
2023/10/16 13:58:06;;;;;;;;;;;;;;;17.98;50.47;101849.75;4950245;28;19942;-90
2023/10/16 14:00:41;;;;;;;;;;;;;;;18.03;50.51;101842.94;4933083;29;20043;-91
2023/10/16 14:03:10;;;;;;;;;;;;;;;18.11;50.92;101852.06;4938552;29;19923;-92
2023/10/16 14:05:50;;;;;;;;;;;;;;;18.25;50.43;101857.03;4942286;29;19915;-91
2023/10/16 14:08:36;;;;;;;;;;;;;;;18.48;50.36;101845.59;4935385;29;20429;-91
2023/10/16 14:11:04;;;;;;;;;;;;;;;18.51;50.72;101847.47;4944196;29;19914;-91
2023/10/16 14:13:32;;;;;;;;;;;;;;;18.38;50.73;101851.38;4946457;28;20013;-91
2023/10/16 14:16:11;;;;;;;;;;;;;;;18.39;50.99;101849.63;4943783;29;19930;-92
2023/10/16 14:18:43;;;;;;;;;;;;;;;18.52;50.67;101841.34;4939659;29;19929;-90
2023/10/16 14:21:12;;;;;;;;;;;;;;;18.60;50.53;101847.78;4922316;29;19982;-91
2023/10/16 14:23:54;;;;;;;;;;;;;;;18.75;50.42;101842.19;4944203;29;20018;-91
2023/10/16 14:26:24;;;;;;;;;;;;;;;18.54;50.77;101839.63;4930254;29;19919;-91
2023/10/16 14:28:54;;;;;;;;;;;;;;;18.62;50.79;101834.63;4949514;28;19919;-89
2023/10/16 14:31:24;;;;;;;;;;;;;;;18.45;51.31;101844.56;4945053;28;19925;-90
2023/10/16 14:33:54;;;;;;;;;;;;;;;18.43;51.76;101854.19;4947484;29;19961;-91
2023/10/16 14:36:24;;;;;;;;;;;;;;;18.46;51.58;101851.69;4940200;29;19922;-92
2023/10/16 14:39:07;;;;;;;;;;;;;;;18.53;51.64;101859.00;4940194;29;19918;-90
2023/10/16 14:41:45;;;;;;;;;;;;;;;18.47;51.84;101861.41;4955974;29;19922;-90
2023/10/16 14:44:11;;;;;;;;;;;;;;;18.42;51.87;101863.88;4922016;29;20324;-91
2023/10/16 14:46:48;;;;;;;;;;;;;;;18.51;51.83;101856.28;4937488;28;20308;-90
2023/10/16 14:49:15;;;;;;;;;;;;;;;18.45;51.94;101863.09;4948647;28;19924;-89
2023/10/16 14:51:41;;;;;;;;;;;;;;;18.51;51.78;101873.91;4938896;29;19966;-91
2023/10/16 14:54:11;;;;;;;;;;;;;;;18.56;51.55;101871.44;4939939;29;19923;-92
2023/10/16 14:56:44;;;;;;;;;;;;;;;18.46;52.05;101876.38;4939280;29;19919;-91
2023/10/16 14:59:26;;;;;;;;;;;;;;;18.52;51.75;101886.31;4938663;29;20327;-92
2023/10/16 15:01:58;;;;;;;;;;;;;;;18.54;51.77;101889.88;4933791;29;19926;-93
2023/10/16 15:04:35;;;;;;;;;;;;;;;18.49;51.77;101886.16;4958686;28;19922;-95
2023/10/16 15:07:19;;;;;;;;;;;;;;;18.48;52.04;101889.69;4940388;29;19925;-93
2023/10/16 15:09:54;;;;;;;;;;;;;;;18.47;52.02;101894.03;4944416;29;19929;-94
2023/10/16 15:12:30;;;;;;;;;;;;;;;18.54;51.71;101899.56;4954421;28;19937;-93
2023/10/16 15:14:59;;;;;;;;;;;;;;;18.53;51.88;101893.38;4919789;28;19946;-94
2023/10/16 15:17:54;;;;;;;;;;;;;;;18.49;51.93;101905.56;4954869;28;20373;-91
2023/10/16 15:20:22;;;;;;;;;;;;;;;18.54;52.09;101908.41;4946601;28;19961;-91
2023/10/16 15:22:49;;;;;;;;;;;;;;;18.63;51.90;101915.84;4933561;29;20008;-94
2023/10/16 15:25:21;;;;;;;;;;;;;;;18.62;51.57;101920.19;4934073;29;19946;-92
2023/10/16 15:27:54;;;;;;;;;;;;;;;18.66;51.84;101915.94;4947745;28;19922;-92
2023/10/16 15:30:31;;;;;;;;;;;;;;;18.70;51.64;101921.41;4936873;28;19922;-93
2023/10/16 15:33:13;;;;;;;;;;;;;;;18.60;51.96;101920.97;4937608;28;19973;-92
2023/10/16 15:35:41;;;;;;;;;;;;;;;18.64;51.89;101921.16;4930480;29;19930;-91
2023/10/16 15:38:28;;;;;;;;;;;;;;;18.69;51.89;101919.63;4938059;28;19922;-91
2023/10/16 15:40:55;;;;;;;;;;;;;;;18.63;51.76;101926.41;4947870;28;19923;-91
2023/10/16 15:43:22;;;;;;;;;;;;;;;18.63;52.16;101937.00;4932471;29;19931;-92